Time;durP1;ratioP1;P1;durP2;ratioP2;P2;SDS_P1;SDS_P2;PMS_P1;PMS_P2;Temp;Humidity;BMP_temperature;BMP_pressure;BME280_temperature;BME280_humidity;BME280_pressure;Samples;Min_cycle;Max_cycle;Signal;HPM_P1;HPM_P2
2022/06/07 05:28:41;;;;;;;;;3.00;3.00;;;;;17.08;78.60;101063.22;5113209;27;45531;-62
2022/06/07 05:31:06;;;;;;;;;2.00;2.00;;;;;17.11;77.73;101054.00;5095919;27;45321;-63
2022/06/07 05:33:32;;;;;;;;;2.25;2.25;;;;;17.28;77.55;101067.25;5095803;27;45426;-63
2022/06/07 05:35:58;;;;;;;;;3.25;3.00;;;;;17.35;77.36;101074.03;5092802;27;45338;-62
2022/06/07 05:38:24;;;;;;;;;2.00;2.00;;;;;17.43;77.03;101079.78;5095642;27;46072;-62
2022/06/07 05:40:49;;;;;;;;;1.00;1.00;;;;;17.45;76.31;101076.94;5095784;27;45659;-62
2022/06/07 05:43:15;;;;;;;;;4.00;2.50;;;;;17.42;76.60;101077.16;5095500;27;45329;-63
2022/06/07 05:45:40;;;;;;;;;3.00;3.00;;;;;17.34;76.57;101061.44;5095934;27;45382;-63
2022/06/07 05:48:06;;;;;;;;;2.00;2.00;;;;;17.35;76.31;101076.72;5095261;27;46575;-63
2022/06/07 05:50:33;;;;;;;;;3.00;3.00;;;;;17.39;76.13;101065.56;5095583;27;45305;-63
2022/06/07 05:52:58;;;;;;;;;3.00;3.00;;;;;17.51;76.33;101080.13;5085213;27;45337;-64
2022/06/07 05:55:24;;;;;;;;;3.00;3.00;;;;;17.54;75.15;101079.88;5095630;27;45353;-65
2022/06/07 05:57:51;;;;;;;;;8.00;7.50;;;;;17.47;75.32;101064.16;5095274;27;45316;-64
2022/06/07 06:00:17;;;;;;;;;4.00;3.00;;;;;17.63;74.89;101082.00;5095634;27;45461;-66
2022/06/07 06:02:43;;;;;;;;;4.00;2.75;;;;;17.64;74.41;101077.44;5095243;27;45348;-65
2022/06/07 06:05:10;;;;;;;;;2.25;2.25;;;;;17.71;74.33;101079.59;5095367;27;45455;-65
2022/06/07 06:07:36;;;;;;;;;1.75;1.75;;;;;17.76;74.03;101082.88;5095010;27;46015;-65
2022/06/07 06:10:20;;;;;;;;;2.25;2.25;;;;;17.69;73.53;101086.13;5095334;27;45318;-64
2022/06/07 06:12:45;;;;;;;;;2.00;2.00;;;;;17.57;74.31;101073.38;5095357;27;45547;-65
2022/06/07 06:15:10;;;;;;;;;3.00;3.00;;;;;17.66;74.12;101091.75;5095447;27;45396;-65
2022/06/07 06:17:36;;;;;;;;;2.25;2.25;;;;;17.67;74.80;101086.22;5094700;27;46279;-64
2022/06/07 06:20:01;;;;;;;;;2.25;2.25;;;;;17.62;75.01;101093.81;5095254;27;45375;-64
2022/06/07 06:24:57;;;;;;;;;3.00;3.00;;;;;17.50;76.41;101097.34;5032394;28;46590;-65
2022/06/07 06:27:23;;;;;;;;;1.75;1.75;;;;;17.40;76.55;101086.28;5035508;28;46162;-64
2022/06/07 06:29:48;;;;;;;;;4.25;3.00;;;;;17.42;76.90;101107.84;5019782;28;45320;-65
2022/06/07 06:32:14;;;;;;;;;3.00;3.00;;;;;17.43;77.11;101103.31;5025647;28;48205;-64
2022/06/07 06:34:39;;;;;;;;;2.25;1.00;;;;;17.43;76.85;101106.00;5020747;28;45396;-65
2022/06/07 06:37:06;;;;;;;;;3.25;3.25;;;;;17.49;76.89;101111.88;5020337;28;45594;-64
2022/06/07 06:39:32;;;;;;;;;3.00;3.00;;;;;17.48;77.16;101107.41;5020422;28;45312;-64
2022/06/07 06:41:57;;;;;;;;;11.00;7.00;;;;;17.48;76.76;101110.13;5023578;28;45387;-64
2022/06/07 06:44:22;;;;;;;;;3.00;3.00;;;;;17.44;76.51;101107.75;5020783;28;45357;-65
2022/06/07 06:46:48;;;;;;;;;3.00;3.00;;;;;17.49;77.20;101119.13;5020644;28;48392;-66
2022/06/07 06:49:14;;;;;;;;;2.00;2.00;;;;;17.56;77.29;101120.44;5020336;28;45415;-64
2022/06/07 06:51:41;;;;;;;;;4.00;4.00;;;;;17.53;77.25;101116.09;5020870;28;45328;-64
2022/06/07 06:54:09;;;;;;;;;2.00;2.00;;;;;17.52;77.68;101116.22;5019425;28;45325;-64
2022/06/07 06:56:35;;;;;;;;;1.25;1.25;;;;;17.55;77.82;101113.28;5020344;28;45418;-65
2022/06/07 06:59:00;;;;;;;;;2.00;2.00;;;;;17.62;76.97;101125.47;5030723;28;45426;-65
2022/06/07 07:01:29;;;;;;;;;3.75;3.75;;;;;17.67;77.33;101124.19;5020842;28;45383;-66
2022/06/07 07:03:55;;;;;;;;;2.00;2.00;;;;;17.70;77.51;101129.38;5020554;28;45470;-65
2022/06/07 07:06:22;;;;;;;;;2.50;2.50;;;;;17.73;77.21;101129.19;5020292;28;45306;-67
2022/06/07 07:08:48;;;;;;;;;1.50;1.50;;;;;17.77;77.06;101125.31;5020241;28;45373;-65
2022/06/07 07:11:20;;;;;;;;;1.00;1.00;;;;;17.78;75.81;101128.84;5020480;28;45325;-65
2022/06/07 07:13:48;;;;;;;;;1.50;1.50;;;;;17.86;75.74;101129.22;5020361;28;45410;-68
2022/06/07 07:16:17;;;;;;;;;0.00;0.00;;;;;17.91;74.65;101131.59;5020066;28;45251;-65
2022/06/07 07:18:43;;;;;;;;;2.00;2.00;;;;;17.99;74.17;101132.78;5020316;28;45272;-65
2022/06/07 07:21:13;;;;;;;;;1.00;1.00;;;;;18.03;74.39;101131.56;5020203;28;45332;-66
2022/06/07 07:23:38;;;;;;;;;2.00;1.00;;;;;18.07;74.24;101133.09;5019612;28;45212;-67
2022/06/07 07:26:06;;;;;;;;;1.00;1.00;;;;;17.96;73.41;101119.44;5019463;28;45389;-67
2022/06/07 07:28:33;;;;;;;;;1.00;1.00;;;;;17.95;72.29;101130.41;5018818;28;45249;-65
2022/06/07 07:31:01;;;;;;;;;2.00;1.00;;;;;17.91;71.57;101128.88;5020176;28;45390;-66
2022/06/07 07:33:27;;;;;;;;;2.25;1.00;;;;;17.86;72.05;101115.66;5020007;28;45506;-67
2022/06/07 07:35:53;;;;;;;;;1.00;0.00;;;;;17.99;71.62;101137.34;5019937;28;46957;-67
2022/06/07 07:38:19;;;;;;;;;0.00;0.00;;;;;17.96;70.60;101130.28;5019139;28;45333;-67
2022/06/07 07:40:44;;;;;;;;;0.00;0.00;;;;;17.99;71.29;101130.06;5018886;28;45250;-66
2022/06/07 07:43:10;;;;;;;;;0.00;0.00;;;;;17.92;70.67;101120.63;5019933;28;45462;-68
2022/06/07 07:45:36;;;;;;;;;2.00;0.00;;;;;18.07;70.52;101135.81;5019967;28;46304;-67
2022/06/07 07:48:02;;;;;;;;;0.75;0.75;;;;;18.10;70.65;101123.91;5019716;28;45413;-67
2022/06/07 07:50:27;;;;;;;;;1.00;1.00;;;;;18.15;71.00;101127.13;5020081;28;45368;-68
2022/06/07 07:52:53;;;;;;;;;0.25;0.25;;;;;18.22;70.98;101122.13;5019464;28;45715;-68
2022/06/07 07:55:18;;;;;;;;;1.00;1.00;;;;;18.29;71.36;101131.59;5018927;28;46257;-68
2022/06/07 07:57:43;;;;;;;;;1.50;1.00;;;;;18.35;71.30;101132.00;5019546;28;45301;-67
2022/06/07 08:00:10;;;;;;;;;1.75;1.00;;;;;18.42;71.32;101130.59;5019830;28;45366;-68
2022/06/07 08:02:35;;;;;;;;;1.00;1.00;;;;;18.53;71.02;101127.97;5019439;28;45338;-67
2022/06/07 08:05:00;;;;;;;;;1.00;1.00;;;;;18.50;69.91;101119.16;5019551;28;45417;-67
2022/06/07 08:07:27;;;;;;;;;1.00;1.00;;;;;18.54;70.75;101126.97;5018129;28;45541;-67
2022/06/07 08:09:52;;;;;;;;;2.00;2.00;;;;;18.58;69.90;101127.66;5019953;28;45310;-68
2022/06/07 08:12:17;;;;;;;;;2.00;1.00;;;;;18.66;70.00;101133.38;5019151;28;45315;-67
2022/06/07 08:14:43;;;;;;;;;2.00;2.00;;;;;18.72;68.90;101127.50;5019340;28;49716;-68
2022/06/07 08:17:08;;;;;;;;;4.00;2.00;;;;;18.78;68.73;101115.34;5017957;28;45226;-68
2022/06/07 08:19:34;;;;;;;;;2.00;2.00;;;;;18.85;68.10;101119.31;5019762;28;45316;-68
2022/06/07 08:22:00;;;;;;;;;3.00;2.25;;;;;18.91;68.26;101135.16;5019208;28;45508;-68
2022/06/07 08:24:26;;;;;;;;;1.25;1.25;;;;;18.86;68.25;101123.78;5018666;28;46289;-67
2022/06/07 08:26:52;;;;;;;;;3.75;2.00;;;;;18.90;69.09;101125.25;5019020;28;45543;-67
2022/06/07 08:29:19;;;;;;;;;3.75;3.00;;;;;19.02;68.74;101131.66;5019019;28;45380;-68
2022/06/07 08:31:45;;;;;;;;;1.75;1.50;;;;;19.04;67.50;101122.41;5019087;28;45303;-67
2022/06/07 08:39:42;;;;;;;;;2.50;2.00;;;;;19.16;66.02;101118.75;5019067;28;45328;-67
2022/06/07 08:42:26;;;;;;;;;0.75;0.75;;;;;19.27;66.39;101124.25;5018641;28;45170;-68
2022/06/07 08:44:56;;;;;;;;;1.75;1.75;;;;;19.38;65.86;101122.56;5018004;28;46345;-69
2022/06/07 08:47:46;;;;;;;;;4.50;3.00;;;;;19.42;65.25;101115.88;5019160;28;45542;-68
2022/06/07 08:50:35;;;;;;;;;1.25;1.25;;;;;19.42;64.81;101121.31;5018927;28;45313;-68
2022/06/07 08:53:24;;;;;;;;;1.75;1.75;;;;;19.53;64.85;101121.41;5017006;28;45316;-68
2022/06/07 08:56:14;;;;;;;;;0.50;0.50;;;;;19.46;63.70;101115.56;5018833;28;46751;-68
2022/06/07 08:58:42;;;;;;;;;1.00;1.00;;;;;19.35;63.91;101120.94;5008797;28;45373;-68
2022/06/07 09:01:21;;;;;;;;;2.00;2.00;;;;;19.38;64.32;101150.63;5018887;28;45396;-69
2022/06/07 09:04:02;;;;;;;;;1.00;1.00;;;;;19.27;60.58;101124.25;5018684;28;45298;-68
2022/06/07 09:06:56;;;;;;;;;2.00;1.00;;;;;19.31;61.68;101124.03;5018541;28;45414;-68
2022/06/07 09:12:09;;;;;;;;;1.00;1.00;;;;;19.38;61.55;101128.00;5015311;28;45364;-68
2022/06/07 09:12:16;;;;;;;;;2.50;1.00;;;;;19.40;61.04;101126.00;5018550;28;45332;-69
2022/06/07 09:15:11;;;;;;;;;3.00;1.25;;;;;19.50;60.68;101127.06;5018379;28;45911;-68
2022/06/07 09:17:48;;;;;;;;;1.25;1.25;;;;;19.54;59.78;101140.34;5018350;28;46061;-68
2022/06/07 09:20:20;;;;;;;;;0.25;0.25;;;;;19.59;60.01;101112.78;5018656;28;45333;-68
2022/06/07 09:22:56;;;;;;;;;1.00;1.00;;;;;19.73;59.89;101117.16;5017597;28;45424;-69
2022/06/07 09:25:27;;;;;;;;;1.25;0.25;;;;;19.79;59.25;101114.81;5018481;28;45481;-69
2022/06/07 09:27:53;;;;;;;;;1.00;1.00;;;;;19.79;58.58;101114.81;5018367;28;45271;-69
2022/06/07 09:30:29;;;;;;;;;0.75;0.75;;;;;19.84;59.29;101100.84;5018029;28;45337;-68
2022/06/07 09:32:55;;;;;;;;;0.00;0.00;;;;;19.92;55.54;101121.00;5017532;28;45336;-68
2022/06/07 09:35:39;;;;;;;;;1.00;1.00;;;;;19.91;55.08;101099.34;5018117;28;46200;-67
2022/06/07 09:38:15;;;;;;;;;0.25;0.25;;;;;19.98;55.81;101096.06;5017912;28;47277;-68
2022/06/07 09:40:56;;;;;;;;;0.00;0.00;;;;;20.10;54.47;101110.53;5018333;28;45452;-69
2022/06/07 09:43:27;;;;;;;;;0.50;0.50;;;;;20.19;54.73;101111.63;5018211;28;45327;-68
2022/06/07 09:46:07;;;;;;;;;0.25;0.00;;;;;20.26;54.90;101097.41;5017870;28;45482;-67
2022/06/07 09:48:45;;;;;;;;;0.00;0.00;;;;;20.21;55.22;101101.50;5017686;28;45319;-68
2022/06/07 09:51:15;;;;;;;;;0.00;0.00;;;;;20.22;55.72;101093.22;5018311;28;45363;-68
2022/06/07 09:53:43;;;;;;;;;1.50;1.00;;;;;20.31;55.82;101091.59;5017980;28;45287;-69
2022/06/07 09:56:30;;;;;;;;;1.50;1.00;;;;;20.36;56.00;101092.97;5018037;28;45446;-68
2022/06/07 09:59:33;;;;;;;;;1.00;0.00;;;;;20.43;54.66;101087.91;5017832;28;46583;-68
2022/06/07 10:02:13;;;;;;;;;2.50;0.50;;;;;20.42;54.09;101088.88;5018150;28;45407;-68
2022/06/07 10:04:47;;;;;;;;;0.00;0.00;;;;;20.49;54.49;101092.88;5021040;28;45524;-68
2022/06/07 10:07:49;;;;;;;;;0.00;0.00;;;;;20.62;53.34;101090.84;5021415;28;45446;-69
2022/06/07 10:10:25;;;;;;;;;3.25;0.25;;;;;20.79;54.26;101092.19;4980494;28;45414;-69
2022/06/07 10:13:13;;;;;;;;;1.50;0.50;;;;;20.89;54.42;101086.84;5020974;28;45509;-68
2022/06/07 10:15:40;;;;;;;;;0.00;0.00;;;;;20.90;52.95;101100.34;5021122;28;45738;-69
2022/06/07 10:18:37;;;;;;;;;0.00;0.00;;;;;20.77;53.13;101083.25;5021144;28;45530;-68
2022/06/07 10:21:21;;;;;;;;;1.50;0.50;;;;;20.74;52.76;101076.22;5020895;28;46548;-69
2022/06/07 10:24:00;;;;;;;;;0.00;0.00;;;;;20.81;50.95;101086.59;5020656;28;45326;-68
2022/06/07 10:26:37;;;;;;;;;0.00;0.00;;;;;20.83;51.04;101093.69;5021427;28;45384;-68
2022/06/07 10:29:22;;;;;;;;;0.00;0.00;;;;;20.86;51.55;101101.56;5020698;28;45275;-70
2022/06/07 10:32:08;;;;;;;;;0.00;0.00;;;;;20.83;52.13;101098.25;5020997;28;45460;-69
2022/06/07 10:34:50;;;;;;;;;2.00;1.00;;;;;20.72;52.95;101080.94;5010091;28;45321;-69
2022/06/07 10:37:38;;;;;;;;;0.50;0.50;;;;;20.74;52.15;101068.06;5020824;28;45440;-68
2022/06/07 10:40:14;;;;;;;;;1.25;0.50;;;;;20.84;52.07;101072.75;5020941;28;45424;-69
2022/06/07 10:42:45;;;;;;;;;2.00;0.00;;;;;20.93;51.08;101083.72;5018978;28;45600;-69
2022/06/07 10:45:19;;;;;;;;;1.00;1.00;;;;;20.91;51.31;101065.78;5020322;28;45313;-68
2022/06/07 10:47:59;;;;;;;;;0.00;0.00;;;;;21.08;51.54;101084.31;5021126;28;45353;-70
2022/06/07 10:50:35;;;;;;;;;0.00;0.00;;;;;21.19;51.44;101077.94;5019925;28;45429;-69
2022/06/07 10:53:20;;;;;;;;;1.00;1.00;;;;;21.28;51.27;101071.72;5017045;28;46397;-71
2022/06/07 10:55:59;;;;;;;;;1.75;0.00;;;;;21.38;49.79;101080.84;5018027;28;45345;-69
2022/06/07 10:58:29;;;;;;;;;0.00;0.00;;;;;21.40;49.89;101077.00;5017690;28;45426;-70
2022/06/07 11:01:02;;;;;;;;;0.75;0.75;;;;;21.33;49.53;101086.72;5016356;28;45321;-69
2022/06/07 11:03:48;;;;;;;;;0.50;0.50;;;;;21.33;49.78;101102.22;5019048;28;45372;-71
2022/06/07 11:09:35;;;;;;;;;0.00;0.00;;;;;21.37;51.04;101082.72;5017211;28;45376;-70
2022/06/07 11:12:26;;;;;;;;;0.75;0.75;;;;;21.24;49.80;101095.69;5017306;28;45630;-71
2022/06/07 11:15:10;;;;;;;;;0.25;0.25;;;;;21.27;50.82;101075.44;5017809;28;45408;-70
2022/06/07 11:17:55;;;;;;;;;0.75;0.75;;;;;21.32;50.28;101062.28;5016406;28;45342;-68
2022/06/07 11:20:28;;;;;;;;;0.25;0.25;;;;;21.45;49.87;101066.53;5017271;28;45344;-70
2022/06/07 11:23:18;;;;;;;;;0.00;0.00;;;;;21.52;50.07;101064.19;5018343;28;45459;-69
2022/06/07 11:26:11;;;;;;;;;1.00;1.00;;;;;21.59;50.23;101073.56;5017260;28;45324;-70
2022/06/07 11:28:39;;;;;;;;;0.00;0.00;;;;;21.65;48.96;101072.16;5018869;28;45432;-71
2022/06/07 11:31:35;;;;;;;;;0.00;0.00;;;;;21.65;49.00;101081.19;5017669;28;45433;-72
2022/06/07 11:34:29;;;;;;;;;0.00;0.00;;;;;21.67;46.77;101076.47;5018536;28;45926;-71
2022/06/07 11:37:20;;;;;;;;;0.00;0.00;;;;;21.74;46.70;101071.34;5015836;28;46293;-70
2022/06/07 11:39:54;;;;;;;;;1.00;0.00;;;;;21.76;46.54;101086.59;5017451;28;45353;-72
2022/06/07 11:42:33;;;;;;;;;0.00;0.00;;;;;21.89;46.46;101067.28;5017666;28;45366;-71
2022/06/07 11:45:18;;;;;;;;;0.00;0.00;;;;;21.96;45.06;101070.31;4998480;28;45496;-72
2022/06/07 11:47:44;;;;;;;;;0.00;0.00;;;;;22.17;46.84;101063.00;5016894;28;45335;-72
2022/06/07 11:50:40;;;;;;;;;0.00;0.00;;;;;22.34;45.34;101045.94;5018147;28;45293;-72
2022/06/07 11:53:24;;;;;;;;;0.00;0.00;;;;;22.51;44.29;101058.94;4992716;28;45537;-72
2022/06/07 11:56:19;;;;;;;;;0.00;0.00;;;;;22.48;44.95;101051.03;5018439;28;45447;-72
2022/06/07 11:59:16;;;;;;;;;0.00;0.00;;;;;22.55;44.33;101054.91;5012666;28;45182;-71
2022/06/07 12:01:47;;;;;;;;;0.00;0.00;;;;;22.48;45.09;101034.63;5002016;28;45508;-70
2022/06/07 12:04:31;;;;;;;;;2.00;0.00;;;;;22.76;45.59;101073.13;5018271;28;45251;-70
2022/06/07 12:07:00;;;;;;;;;1.00;0.00;;;;;22.90;45.63;101050.84;5015488;28;45337;-71
2022/06/07 12:09:27;;;;;;;;;0.00;0.00;;;;;23.02;44.69;101063.41;5017559;28;46235;-71
2022/06/07 12:11:53;;;;;;;;;0.00;0.00;;;;;22.85;43.85;101045.81;5018731;28;45360;-72
2022/06/07 12:14:42;;;;;;;;;0.00;0.00;;;;;22.86;44.56;101038.50;5019477;28;45502;-71
2022/06/07 12:17:21;;;;;;;;;0.00;0.00;;;;;22.77;43.20;101048.41;5018583;28;45534;-72
2022/06/07 12:19:47;;;;;;;;;0.00;0.00;;;;;22.79;43.80;101043.66;5019255;28;46343;-72
2022/06/07 12:22:17;;;;;;;;;0.00;0.00;;;;;22.80;44.38;101036.28;5018916;28;45402;-71
2022/06/07 12:25:12;;;;;;;;;0.00;0.00;;;;;22.80;44.59;101050.84;5018954;28;45581;-72
2022/06/07 12:27:47;;;;;;;;;0.50;0.00;;;;;22.83;43.32;101044.22;5008451;28;45782;-73
2022/06/07 12:30:31;;;;;;;;;0.00;0.00;;;;;23.00;43.68;101038.06;5018908;28;46511;-72
2022/06/07 12:33:24;;;;;;;;;0.00;0.00;;;;;22.99;44.45;101039.91;5019940;28;45522;-72
2022/06/07 12:35:59;;;;;;;;;0.00;0.00;;;;;23.07;45.22;101028.25;5019353;28;45401;-73
2022/06/07 12:38:27;;;;;;;;;1.00;1.00;;;;;23.14;46.14;101020.38;5018615;28;45593;-73
2022/06/07 12:41:14;;;;;;;;;0.00;0.00;;;;;23.27;45.34;101027.25;5019107;28;45286;-73
2022/06/07 12:44:01;;;;;;;;;0.00;0.00;;;;;23.43;44.47;101023.94;5018948;28;45494;-73
2022/06/07 12:46:46;;;;;;;;;0.00;0.00;;;;;23.56;45.36;101026.41;5018780;28;45439;-72
2022/06/07 12:49:23;;;;;;;;;0.00;0.00;;;;;23.80;42.21;101031.38;5018462;28;45514;-72
2022/06/07 12:52:05;;;;;;;;;0.00;0.00;;;;;23.84;42.02;101030.06;5018889;28;46119;-72
2022/06/07 12:54:35;;;;;;;;;0.00;0.00;;;;;23.84;42.59;101027.31;5018877;28;45285;-72
2022/06/07 12:57:12;;;;;;;;;1.00;1.00;;;;;23.95;43.41;101024.41;5018960;28;45246;-73
2022/06/07 12:59:39;;;;;;;;;3.50;0.00;;;;;24.16;41.98;101022.28;5018813;28;45336;-73
2022/06/07 13:02:25;;;;;;;;;0.50;0.00;;;;;24.09;42.31;101026.66;5018547;28;45299;-73
2022/06/07 13:04:57;;;;;;;;;0.00;0.00;;;;;24.05;42.54;101009.66;5017858;28;45426;-73
2022/06/07 13:07:31;;;;;;;;;1.00;1.00;;;;;24.20;43.40;101015.50;5018705;28;45189;-72
2022/06/07 13:10:04;;;;;;;;;2.25;0.00;;;;;24.55;42.69;101019.38;5018566;28;45430;-74
2022/06/07 13:12:41;;;;;;;;;0.75;0.75;;;;;24.73;41.65;101001.94;5018253;28;46192;-73
2022/06/07 13:15:24;;;;;;;;;0.75;0.00;;;;;24.75;41.64;101012.78;5017805;28;45260;-73
2022/06/07 13:17:52;;;;;;;;;2.75;0.00;;;;;24.74;40.99;101017.41;5017874;28;45458;-74
2022/06/07 13:20:33;;;;;;;;;2.00;0.00;;;;;24.67;41.19;101010.78;5018275;28;45597;-74
2022/06/07 13:22:58;;;;;;;;;0.75;0.75;;;;;24.61;41.31;100994.09;5016009;28;46024;-74
2022/06/07 13:25:31;;;;;;;;;0.00;0.00;;;;;25.02;41.79;101009.09;5018413;28;45420;-73
2022/06/07 13:28:06;;;;;;;;;0.00;0.00;;;;;25.18;40.31;101004.63;5018763;28;45519;-74
2022/06/07 13:30:39;;;;;;;;;1.75;0.00;;;;;25.41;40.46;100998.66;5018354;28;45354;-74
2022/06/07 13:33:25;;;;;;;;;0.00;0.00;;;;;25.23;39.77;100999.53;5008785;28;45352;-73
2022/06/07 13:35:57;;;;;;;;;0.75;0.00;;;;;25.00;38.68;100992.81;5018186;28;45471;-76
2022/06/07 13:38:30;;;;;;;;;0.00;0.00;;;;;24.83;39.93;101002.75;5019109;28;45344;-73
2022/06/07 13:41:11;;;;;;;;;0.00;0.00;;;;;24.68;40.19;101000.66;5021911;28;45307;-73
2022/06/07 13:43:59;;;;;;;;;0.00;0.00;;;;;24.84;40.03;100996.22;5021824;28;46581;-75
2022/06/07 13:46:32;;;;;;;;;0.00;0.00;;;;;25.20;40.07;100988.00;5021742;28;45410;-73
2022/06/07 13:54:55;;;;;;;;;0.00;0.00;;;;;25.00;39.76;100994.72;5021977;28;45228;-74
2022/06/07 13:57:21;;;;;;;;;0.00;0.00;;;;;24.67;40.48;101001.72;5021754;28;45316;-73
2022/06/07 13:59:49;;;;;;;;;0.00;0.00;;;;;24.37;41.16;100994.69;5021698;28;45450;-72
2022/06/07 14:02:16;;;;;;;;;0.00;0.00;;;;;24.24;41.86;101018.84;5021363;28;45355;-74
2022/06/07 14:04:41;;;;;;;;;1.75;0.00;;;;;23.98;42.58;101002.22;5021161;28;45364;-73
2022/06/07 14:07:10;;;;;;;;;0.00;0.00;;;;;23.87;43.25;101018.81;5021266;28;45176;-73
2022/06/07 14:09:35;;;;;;;;;0.00;0.00;;;;;24.02;43.53;101009.97;5021431;28;45265;-74
2022/06/07 14:12:01;;;;;;;;;0.50;0.50;;;;;24.45;42.18;100998.38;5021222;28;45375;-73
2022/06/07 14:14:26;;;;;;;;;0.00;0.00;;;;;25.03;40.83;101002.59;5021144;28;46251;-74
2022/06/07 14:16:57;;;;;;;;;0.00;0.00;;;;;25.65;39.92;100998.00;5021452;28;45391;-73
2022/06/07 14:19:26;;;;;;;;;0.00;0.00;;;;;26.28;38.89;100991.16;5021270;28;46727;-74
2022/06/07 14:21:52;;;;;;;;;0.00;0.00;;;;;26.98;37.06;100999.09;5021154;28;45442;-74
2022/06/07 14:24:21;;;;;;;;;0.00;0.00;;;;;27.49;35.19;100989.63;5020586;28;45535;-74
2022/06/07 14:26:49;;;;;;;;;0.25;0.00;;;;;27.94;35.80;100982.69;5021062;28;45354;-71
2022/06/07 14:29:14;;;;;;;;;0.00;0.00;;;;;28.27;34.46;100984.31;5021221;28;45355;-75
2022/06/07 14:31:41;;;;;;;;;0.75;0.00;;;;;28.36;34.38;100979.59;5020803;28;45479;-74
2022/06/07 14:34:21;;;;;;;;;0.00;0.00;;;;;27.74;34.13;100976.69;5020748;28;45399;-75
2022/06/07 14:36:47;;;;;;;;;0.00;0.00;;;;;27.73;34.32;100986.03;5020368;28;45307;-71
2022/06/07 14:39:18;;;;;;;;;0.75;0.00;;;;;27.99;34.21;100983.84;5020960;28;45387;-73
2022/06/07 14:41:43;;;;;;;;;0.00;0.00;;;;;28.58;34.12;100960.34;5020970;28;45388;-74
2022/06/07 14:44:09;;;;;;;;;0.00;0.00;;;;;29.07;32.58;100981.25;5021002;28;45400;-73
2022/06/07 14:46:35;;;;;;;;;0.00;0.00;;;;;28.94;32.98;100985.47;5021031;28;45305;-73
2022/06/07 14:49:14;;;;;;;;;0.00;0.00;;;;;28.51;33.46;100975.03;5020756;28;45482;-73
2022/06/07 14:51:41;;;;;;;;;0.25;0.25;;;;;28.14;34.62;100979.34;5020295;28;45561;-74
2022/06/07 14:54:23;;;;;;;;;0.00;0.00;;;;;27.47;34.46;100984.31;5020727;28;45437;-74
2022/06/07 14:56:52;;;;;;;;;0.00;0.00;;;;;26.82;35.51;100999.03;5020948;28;45336;-75
2022/06/07 14:59:19;;;;;;;;;0.00;0.00;;;;;26.17;37.07;100993.31;5021347;28;45316;-75
2022/06/07 15:01:45;;;;;;;;;0.00;0.00;;;;;25.68;38.52;100995.78;5020435;28;45384;-75
2022/06/07 15:04:21;;;;;;;;;1.75;0.50;;;;;25.29;38.86;101003.53;5020478;28;46746;-74
2022/06/07 15:06:47;;;;;;;;;1.50;0.00;;;;;25.09;39.07;100989.13;5020854;28;45359;-71
2022/06/07 15:09:21;;;;;;;;;0.00;0.00;;;;;25.36;37.99;100987.28;5020338;28;45273;-74
2022/06/07 15:11:48;;;;;;;;;0.00;0.00;;;;;25.59;37.98;100988.53;5020665;28;45281;-73
2022/06/07 15:14:14;;;;;;;;;0.75;0.00;;;;;25.61;37.49;100978.22;5020659;28;46358;-73
2022/06/07 15:16:43;;;;;;;;;0.00;0.00;;;;;25.46;37.70;100983.41;5019890;28;45298;-73
2022/06/07 15:19:14;;;;;;;;;0.00;0.00;;;;;25.37;38.02;100967.03;5019498;28;45356;-72
2022/06/07 15:21:42;;;;;;;;;0.00;0.00;;;;;25.30;37.90;100982.44;5019680;28;45569;-74
2022/06/07 15:24:13;;;;;;;;;1.50;0.75;;;;;25.41;37.99;100972.06;5019547;28;46411;-72
2022/06/07 15:26:39;;;;;;;;;0.00;0.00;;;;;25.83;36.81;100969.44;5019554;28;45278;-76
2022/06/07 15:29:05;;;;;;;;;0.00;0.00;;;;;26.27;34.84;100966.59;5019300;28;45263;-74
2022/06/07 15:31:31;;;;;;;;;0.00;0.00;;;;;26.49;34.24;100959.59;5020133;28;45348;-74
2022/06/07 15:34:00;;;;;;;;;0.00;0.00;;;;;26.39;34.07;100962.50;5020191;28;46339;-73
2022/06/07 15:36:27;;;;;;;;;0.00;0.00;;;;;26.47;34.66;100961.66;5018932;28;45358;-72
2022/06/07 15:38:53;;;;;;;;;0.00;0.00;;;;;26.91;32.73;100954.03;5019940;28;45414;-74
2022/06/07 15:44:04;;;;;;;;;0.00;0.00;;;;;27.31;31.23;100939.38;5019863;28;45687;-63
2022/06/07 15:46:30;;;;;;;;;0.25;0.00;;;;;27.55;30.41;100942.16;5019910;28;45280;-70
2022/06/07 15:48:55;;;;;;;;;0.00;0.00;;;;;27.68;31.09;100934.19;5019495;28;45404;-69
2022/06/07 15:51:21;;;;;;;;;0.00;0.00;;;;;27.92;31.45;100936.00;5019936;28;45444;-70
2022/06/07 15:53:47;;;;;;;;;1.00;0.00;;;;;28.02;31.03;100942.16;5019393;28;45460;-70
2022/06/07 15:56:13;;;;;;;;;0.25;0.00;;;;;27.55;31.70;100928.38;5019892;28;45545;-73
2022/06/07 16:01:25;;;;;;;;;0.00;0.00;;;;;26.77;32.78;100933.53;5018802;28;45413;-77
2022/06/07 16:03:56;;;;;;;;;0.00;0.00;;;;;26.84;32.87;100945.56;5019653;28;46196;-70
2022/06/07 16:06:26;;;;;;;;;1.00;0.00;;;;;26.84;32.13;100933.69;5018996;28;45599;-72
2022/06/07 16:08:53;;;;;;;;;0.00;0.00;;;;;27.08;32.26;100925.47;5019859;28;45293;-70
2022/06/07 16:11:19;;;;;;;;;0.25;0.00;;;;;27.23;31.58;100932.00;5018563;28;45282;-75
2022/06/07 16:13:45;;;;;;;;;1.00;0.00;;;;;27.41;30.94;100913.38;5019057;28;45261;-69
2022/06/07 16:16:11;;;;;;;;;0.25;0.25;;;;;27.61;30.84;100935.06;5018785;28;45323;-70
2022/06/07 16:18:36;;;;;;;;;0.00;0.00;;;;;27.44;30.07;100929.56;5019265;28;45330;-71
2022/06/07 16:21:02;;;;;;;;;1.00;0.00;;;;;27.36;29.21;100921.31;5018754;28;55170;-76
2022/06/07 16:23:28;;;;;;;;;0.00;0.00;;;;;27.31;28.52;100920.09;5019000;28;46342;-77
2022/06/07 16:25:53;;;;;;;;;0.00;0.00;;;;;27.20;28.69;100926.00;5002123;28;45290;-76
2022/06/07 16:33:51;;;;;;;;;0.00;0.00;;;;;27.20;30.24;100934.25;5019850;28;45352;-75
2022/06/07 16:36:23;;;;;;;;;0.00;0.00;;;;;27.14;30.45;100924.78;5019061;28;45352;-76
2022/06/07 16:38:51;;;;;;;;;0.00;0.00;;;;;27.03;31.03;100923.25;5019242;28;45503;-76
2022/06/07 16:41:18;;;;;;;;;0.00;0.00;;;;;27.18;31.25;100939.94;5019613;28;45479;-76
2022/06/07 16:44:02;;;;;;;;;1.50;0.00;;;;;26.96;31.68;100930.50;5019435;28;45274;-78
2022/06/07 16:46:49;;;;;;;;;0.00;0.00;;;;;26.77;33.09;100902.41;5019794;28;45406;-76
2022/06/07 16:49:26;;;;;;;;;2.00;1.00;;;;;27.08;33.32;100920.84;5019467;28;45403;-74
2022/06/07 16:51:53;;;;;;;;;0.00;0.00;;;;;27.05;33.24;100929.41;5018615;28;45519;-78
2022/06/07 16:54:19;;;;;;;;;0.00;0.00;;;;;26.78;33.58;100935.25;5018737;28;46195;-77
2022/06/07 16:56:46;;;;;;;;;0.00;0.00;;;;;26.56;34.84;100941.38;5018686;28;45403;-75
2022/06/07 16:59:12;;;;;;;;;0.00;0.00;;;;;26.13;35.42;100937.81;5019174;28;45510;-77
2022/06/07 17:01:39;;;;;;;;;0.75;0.75;;;;;25.80;36.02;100939.56;5019022;28;45231;-78
2022/06/07 17:04:06;;;;;;;;;1.50;1.00;;;;;25.31;37.75;100948.47;5018842;28;46530;-75
2022/06/07 17:06:32;;;;;;;;;0.50;0.50;;;;;25.23;37.62;100954.78;5018674;28;45436;-77
2022/06/07 17:08:58;;;;;;;;;0.25;0.25;;;;;25.11;38.70;100940.44;5018817;28;45296;-77
2022/06/07 17:11:25;;;;;;;;;0.00;0.00;;;;;25.01;38.85;100949.81;5018690;28;45328;-74
2022/06/07 17:13:51;;;;;;;;;0.75;0.75;;;;;24.88;38.78;100942.78;5018465;28;46283;-76
2022/06/07 17:16:18;;;;;;;;;0.00;0.00;;;;;24.85;38.41;100958.69;5018716;28;45317;-75
2022/06/07 17:18:44;;;;;;;;;0.00;0.00;;;;;24.73;38.93;100940.75;5017779;28;45398;-75
2022/06/07 17:21:10;;;;;;;;;1.00;0.00;;;;;24.82;38.92;100945.31;5017190;28;45592;-72
2022/06/07 17:23:38;;;;;;;;;0.00;0.00;;;;;24.72;39.63;100944.53;5016669;28;46275;-69
2022/06/07 17:26:07;;;;;;;;;0.25;0.25;;;;;24.72;39.32;100944.53;5016547;28;45377;-72
2022/06/07 17:28:34;;;;;;;;;0.00;0.00;;;;;24.51;40.81;100950.28;5017358;28;45282;-71
2022/06/07 17:31:00;;;;;;;;;0.25;0.00;;;;;24.52;40.59;100943.78;5017034;28;45978;-76
2022/06/07 17:33:25;;;;;;;;;0.00;0.00;;;;;24.67;40.29;100939.50;5018293;28;46324;-78
2022/06/07 17:35:50;;;;;;;;;0.50;0.50;;;;;24.64;40.57;100939.81;5018614;28;45335;-74
2022/06/07 17:38:16;;;;;;;;;0.75;0.00;;;;;24.66;40.21;100945.16;5018393;28;45320;-76
2022/06/07 17:40:41;;;;;;;;;0.00;0.00;;;;;24.66;40.17;100932.31;5018461;28;45333;-78
2022/06/07 17:43:08;;;;;;;;;0.00;0.00;;;;;24.46;40.23;100949.91;5018404;28;46302;-75